Time,TemperatureF,DewpointF,PressureIn,WindDirection,WindDirectionDegrees,WindSpeedMPH,WindSpeedGustMPH,Humidity,HourlyPrecipIn,Conditions,Clouds,dailyrainin,SoftwareType,DateUTC
2013-12-30 00:02:00,26.6,21.0,30.19,NNW,336,1.0,1.0,79,0.00,RA,,0.00,WeatherDisplay:10.37,2013-12-30 06:02:00,
2013-12-30 00:07:00,26.5,20.6,30.19,NNW,345,1.1,1.1,78,0.00,RA,,0.00,WeatherDisplay:10.37,2013-12-30 06:07:00,
2013-12-30 00:12:00,26.5,20.9,30.19,North,360,3.5,3.5,79,0.00,CLR,,0.00,WeatherDisplay:10.37,2013-12-30 06:12:00,
2013-12-30 00:17:00,26.5,20.9,30.19,WNW,294,2.3,2.3,79,0.00,CLR,,0.00,WeatherDisplay:10.37,2013-12-30 06:17:00,
2013-12-30 00:22:00,26.4,20.8,30.20,North,351,4.6,4.6,79,0.00,CLR,,0.00,WeatherDisplay:10.37,2013-12-30 06:22:00,
2013-12-30 00:27:00,26.4,20.8,30.20,NNW,336,1.1,0.0,79,0.00,CLR,,0.00,WeatherDisplay:10.37,2013-12-30 06:27:00,
2013-12-30 00:32:00,26.4,20.8,30.20,NW,319,1.1,0.0,79,0.00,CLR,,0.00,WeatherDisplay:10.37,2013-12-30 06:32:00,
2013-12-30 00:37:00,26.3,20.7,30.19,North,360,3.5,3.5,79,0.00,CLR,,0.00,WeatherDisplay:10.37,2013-12-30 06:37:00,
2013-12-30 00:42:00,26.1,20.5,30.19,North,350,1.1,1.1,79,0.00,CLR,,0.00,WeatherDisplay:10.37,2013-12-30 06:42:00,
2013-12-30 00:47:00,26.1,20.2,30.19,NW,325,0.0,0.0,78,0.00,CLR,,0.00,WeatherDisplay:10.37,2013-12-30 06:47:00,
2013-12-30 00:52:00,26.0,20.4,30.19,North,355,2.3,2.3,79,0.00,CLR,,0.00,WeatherDisplay:10.37,2013-12-30 06:52:00,
2013-12-30 00:57:00,25.8,20.2,30.19,NNW,331,2.3,2.3,79,0.00,CLR,,0.00,WeatherDisplay:10.37,2013-12-30 06:57:00,
2013-12-30 01:02:00,25.8,19.9,30.20,NNW,331,1.1,1.1,78,0.00,CLR,,0.00,WeatherDisplay:10.37,2013-12-30 07:02:00,
2013-12-30 01:07:00,25.7,20.1,30.20,NW,324,0.0,0.0,79,0.00,CLR,,0.00,WeatherDisplay:10.37,2013-12-30 07:07:00,
2013-12-30 01:12:00,25.8,20.2,30.20,NW,324,0.0,0.0,79,0.00,CLR,,0.00,WeatherDisplay:10.37,2013-12-30 07:12:00,
2013-12-30 01:17:00,25.8,20.2,30.20,NW,324,0.0,0.0,79,0.00,CLR,,0.00,WeatherDisplay:10.37,2013-12-30 07:17:00,
2013-12-30 01:22:00,25.8,20.5,30.20,NNW,336,3.5,3.5,80,0.00,CLR,,0.00,WeatherDisplay:10.37,2013-12-30 07:22:00,
2013-12-30 01:27:00,25.8,20.2,30.21,NNW,343,1.1,0.0,79,0.00,CLR,,0.00,WeatherDisplay:10.37,2013-12-30 07:27:00,
2013-12-30 01:32:00,25.8,20.2,30.21,North,360,0.0,0.0,79,0.00,CLR,,0.00,WeatherDisplay:10.37,2013-12-30 07:32:00,
2013-12-30 01:37:00,25.7,20.1,30.21,North,5,0.0,0.0,79,0.00,CLR,,0.00,WeatherDisplay:10.37,2013-12-30 07:37:00,
2013-12-30 01:42:00,25.7,20.1,30.22,North,5,0.0,0.0,79,0.00,CLR,,0.00,WeatherDisplay:10.37,2013-12-30 07:42:00,
2013-12-30 01:47:00,25.7,20.4,30.22,NNW,338,1.1,0.0,80,0.00,CLR,,0.00,WeatherDisplay:10.37,2013-12-30 07:47:00,
2013-12-30 01:52:00,25.7,20.4,30.22,NW,325,2.3,2.3,80,0.00,CLR,,0.00,WeatherDisplay:10.37,2013-12-30 07:52:00,
2013-12-30 01:57:00,25.7,20.4,30.22,NNW,336,3.5,3.5,80,0.00,CLR,,0.00,WeatherDisplay:10.37,2013-12-30 07:57:00,
2013-12-30 02:02:00,25.7,20.1,30.22,NW,319,3.5,3.5,79,0.00,CLR,,0.00,WeatherDisplay:10.37,2013-12-30 08:02:00,
2013-12-30 02:07:00,25.6,20.0,30.22,NNW,342,3.5,3.5,79,0.00,CLR,,0.00,WeatherDisplay:10.37,2013-12-30 08:07:00,
2013-12-30 02:12:00,25.6,20.0,30.22,NNW,345,2.3,2.3,79,0.00,CLR,,0.00,WeatherDisplay:10.37,2013-12-30 08:12:00,
2013-12-30 02:17:00,25.6,20.0,30.22,NW,322,1.1,0.0,79,0.00,CLR,,0.00,WeatherDisplay:10.37,2013-12-30 08:17:00,
2013-12-30 02:22:00,25.6,20.0,30.22,North,355,2.3,2.3,79,0.00,CLR,,0.00,WeatherDisplay:10.37,2013-12-30 08:22:00,
2013-12-30 02:27:00,25.6,20.0,30.23,NW,325,2.0,2.0,79,0.00,CLR,,0.00,WeatherDisplay:10.37,2013-12-30 08:27:00,
2013-12-30 02:32:00,25.5,19.9,30.23,NW,314,2.3,2.3,79,0.00,CLR,,0.00,WeatherDisplay:10.37,2013-12-30 08:32:00,
2013-12-30 02:37:00,25.4,19.5,30.23,NNW,348,2.0,2.0,78,0.00,CLR,,0.00,WeatherDisplay:10.37,2013-12-30 08:37:00,
2013-12-30 02:42:00,25.2,19.0,30.23,NW,312,4.6,4.6,77,0.00,CLR,,0.00,WeatherDisplay:10.37,2013-12-30 08:42:00,
2013-12-30 02:47:00,25.1,18.9,30.24,NNW,328,3.5,3.5,77,0.00,CLR,,0.00,WeatherDisplay:10.37,2013-12-30 08:47:00,
2013-12-30 02:52:00,24.9,18.7,30.24,NNW,333,1.0,1.0,77,0.00,CLR,,0.00,WeatherDisplay:10.37,2013-12-30 08:52:00,
2013-12-30 02:57:00,24.9,18.7,30.24,NW,305,3.5,3.5,77,0.00,CLR,,0.00,WeatherDisplay:10.37,2013-12-30 08:57:00,
2013-12-30 03:02:00,24.8,18.9,30.24,NW,326,3.5,3.5,78,0.00,CLR,,0.00,WeatherDisplay:10.37,2013-12-30 09:02:00,
2013-12-30 03:07:00,24.6,18.7,30.24,NW,325,3.5,3.5,78,0.00,CLR,,0.00,WeatherDisplay:10.37,2013-12-30 09:07:00,
2013-12-30 03:12:00,24.5,18.6,30.24,NW,317,2.3,2.3,78,0.00,CLR,,0.00,WeatherDisplay:10.37,2013-12-30 09:12:00,
2013-12-30 03:17:00,24.4,18.5,30.24,NW,313,3.5,3.5,78,0.00,CLR,,0.00,WeatherDisplay:10.37,2013-12-30 09:17:00,
2013-12-30 03:22:00,24.3,18.7,30.24,NNW,340,2.3,0.0,79,0.00,CLR,,0.00,WeatherDisplay:10.37,2013-12-30 09:22:00,
2013-12-30 03:27:00,24.2,18.6,30.24,NNW,332,3.5,3.5,79,0.00,CLR,,0.00,WeatherDisplay:10.37,2013-12-30 09:27:00,
2013-12-30 03:32:00,24.1,18.5,30.24,NW,322,1.1,0.0,79,0.00,CLR,,0.00,WeatherDisplay:10.37,2013-12-30 09:32:00,
2013-12-30 03:37:00,24.0,18.4,30.24,WNW,295,2.3,2.3,79,0.00,CLR,,0.00,WeatherDisplay:10.37,2013-12-30 09:37:00,
2013-12-30 03:42:00,24.0,18.4,30.24,NNW,328,0.0,0.1,79,0.00,CLR,,0.00,WeatherDisplay:10.37,2013-12-30 09:42:00,
2013-12-30 03:47:00,23.9,18.3,30.24,NNW,337,2.3,2.3,79,0.00,CLR,,0.00,WeatherDisplay:10.37,2013-12-30 09:47:00,
2013-12-30 03:52:00,23.8,18.5,30.24,NW,315,3.5,3.5,80,0.00,CLR,,0.00,WeatherDisplay:10.37,2013-12-30 09:52:00,
2013-12-30 03:57:00,23.7,18.4,30.24,NW,323,2.3,0.0,80,0.00,CLR,,0.00,WeatherDisplay:10.37,2013-12-30 09:57:00,
2013-12-30 04:02:00,23.7,18.4,30.24,WNW,302,2.3,2.3,80,0.00,CLR,,0.00,WeatherDisplay:10.37,2013-12-30 10:02:00,
2013-12-30 04:07:00,23.6,18.3,30.24,NW,315,0.0,0.2,80,0.00,CLR,,0.00,WeatherDisplay:10.37,2013-12-30 10:07:00,
2013-12-30 04:12:00,23.6,18.3,30.24,NNW,335,1.1,0.0,80,0.00,CLR,,0.00,WeatherDisplay:10.37,2013-12-30 10:12:00,
2013-12-30 04:17:00,23.6,18.3,30.25,NW,323,2.3,0.0,80,0.00,CLR,,0.00,WeatherDisplay:10.37,2013-12-30 10:17:00,
2013-12-30 04:22:00,23.5,18.2,30.24,NNW,339,4.6,4.6,80,0.00,CLR,,0.00,WeatherDisplay:10.37,2013-12-30 10:22:00,
2013-12-30 04:27:00,23.5,18.2,30.25,NW,316,2.3,2.3,80,0.00,CLR,,0.00,WeatherDisplay:10.37,2013-12-30 10:27:00,
2013-12-30 04:32:00,23.4,18.1,30.24,NNW,343,3.5,3.5,80,0.00,CLR,,0.00,WeatherDisplay:10.37,2013-12-30 10:32:00,
2013-12-30 04:37:00,23.3,18.0,30.25,NW,306,0.0,0.1,80,0.00,CLR,,0.00,WeatherDisplay:10.37,2013-12-30 10:37:00,
2013-12-30 04:42:00,23.3,18.3,30.24,NW,321,0.0,0.0,81,0.00,CLR,,0.00,WeatherDisplay:10.37,2013-12-30 10:42:00,
2013-12-30 04:47:00,23.2,17.9,30.25,NW,322,1.1,0.0,80,0.00,CLR,,0.00,WeatherDisplay:10.37,2013-12-30 10:47:00,
2013-12-30 04:52:00,23.1,17.8,30.25,North,5,2.0,2.0,80,0.00,CLR,,0.00,WeatherDisplay:10.37,2013-12-30 10:52:00,
2013-12-30 04:57:00,22.8,17.3,30.25,North,355,4.6,4.6,79,0.00,CLR,,0.00,WeatherDisplay:10.37,2013-12-30 10:57:00,
2013-12-30 05:03:00,22.7,17.2,30.25,North,355,3.0,3.0,79,0.00,CLR,,0.00,WeatherDisplay:10.37,2013-12-30 11:03:00,
2013-12-30 05:08:00,22.6,17.1,30.25,North,355,5.8,5.8,79,0.00,CLR,,0.00,WeatherDisplay:10.37,2013-12-30 11:08:00,
2013-12-30 05:13:00,22.5,17.0,30.25,North,360,3.0,3.0,79,0.00,CLR,,0.00,WeatherDisplay:10.37,2013-12-30 11:13:00,
2013-12-30 05:18:00,22.4,16.9,30.25,NNW,348,3.5,3.5,79,0.00,CLR,,0.00,WeatherDisplay:10.37,2013-12-30 11:18:00,
2013-12-30 05:23:00,22.2,16.7,30.25,NNW,346,3.5,3.5,79,0.00,CLR,,0.00,WeatherDisplay:10.37,2013-12-30 11:23:00,
2013-12-30 05:28:00,22.2,16.7,30.25,NNW,346,4.6,4.6,79,0.00,CLR,,0.00,WeatherDisplay:10.37,2013-12-30 11:28:00,
2013-12-30 05:33:00,22.0,16.5,30.26,North,360,1.1,1.1,79,0.00,CLR,,0.00,WeatherDisplay:10.37,2013-12-30 11:33:00,
2013-12-30 05:38:00,21.9,16.7,30.26,NW,319,1.1,1.1,80,0.00,CLR,,0.00,WeatherDisplay:10.37,2013-12-30 11:38:00,
2013-12-30 05:43:00,21.8,16.6,30.26,North,5,1.1,1.1,80,0.00,CLR,,0.00,WeatherDisplay:10.37,2013-12-30 11:43:00,
2013-12-30 05:48:00,21.6,16.4,30.26,North,355,3.5,3.5,80,0.00,CLR,,0.00,WeatherDisplay:10.37,2013-12-30 11:48:00,
2013-12-30 05:53:00,21.6,16.4,30.26,North,355,1.1,1.1,80,0.00,CLR,,0.00,WeatherDisplay:10.37,2013-12-30 11:53:00,
2013-12-30 05:58:00,21.5,16.3,30.26,NNW,338,2.3,2.3,80,0.00,CLR,,0.00,WeatherDisplay:10.37,2013-12-30 11:58:00,
2013-12-30 06:03:00,21.5,16.3,30.25,NNW,340,3.5,3.5,80,0.00,CLR,,0.00,WeatherDisplay:10.37,2013-12-30 12:03:00,
2013-12-30 06:08:00,21.4,16.2,30.25,NNW,339,0.0,0.0,80,0.00,CLR,,0.00,WeatherDisplay:10.37,2013-12-30 12:08:00,
2013-12-30 06:13:00,21.3,16.1,30.26,NNW,339,3.5,3.5,80,0.00,CLR,,0.00,WeatherDisplay:10.37,2013-12-30 12:13:00,
2013-12-30 06:18:00,21.2,16.0,30.26,North,350,1.1,1.1,80,0.00,CLR,,0.00,WeatherDisplay:10.37,2013-12-30 12:18:00,
2013-12-30 06:23:00,21.2,16.0,30.26,NNW,336,2.3,2.3,80,0.00,CLR,,0.00,WeatherDisplay:10.37,2013-12-30 12:23:00,
2013-12-30 06:28:00,21.1,16.2,30.26,North,355,1.1,1.1,81,0.00,CLR,,0.00,WeatherDisplay:10.37,2013-12-30 12:28:00,
2013-12-30 06:33:00,21.0,15.8,30.26,North,355,1.1,1.1,80,0.00,CLR,,0.00,WeatherDisplay:10.37,2013-12-30 12:33:00,
2013-12-30 06:38:00,20.9,15.7,30.27,North,355,1.1,1.1,80,0.00,CLR,,0.00,WeatherDisplay:10.37,2013-12-30 12:38:00,
2013-12-30 06:43:00,20.7,15.2,30.27,North,5,3.5,3.5,79,0.00,CLR,,0.00,WeatherDisplay:10.37,2013-12-30 12:43:00,
2013-12-30 06:48:00,20.6,15.1,30.27,North,11,2.3,2.3,79,0.00,CLR,,0.00,WeatherDisplay:10.37,2013-12-30 12:48:00,
2013-12-30 06:53:00,20.5,15.0,30.27,North,360,2.3,2.3,79,0.00,CLR,,0.00,WeatherDisplay:10.37,2013-12-30 12:53:00,
2013-12-30 06:58:00,20.3,14.8,30.27,NNW,348,3.5,3.5,79,0.00,CLR,,0.00,WeatherDisplay:10.37,2013-12-30 12:58:00,
2013-12-30 07:03:00,20.2,14.7,30.27,North,355,4.0,4.0,79,0.00,CLR,,0.00,WeatherDisplay:10.37,2013-12-30 13:03:00,
2013-12-30 07:08:00,20.0,14.5,30.27,NNW,345,0.0,0.0,79,0.00,CLR,,0.00,WeatherDisplay:10.37,2013-12-30 13:08:00,
2013-12-30 07:13:00,19.9,14.4,30.28,North,360,1.1,1.1,79,0.00,CLR,,0.00,WeatherDisplay:10.37,2013-12-30 13:13:00,
2013-12-30 07:18:00,19.8,14.3,30.28,North,355,2.0,2.0,79,0.00,CLR,,0.00,WeatherDisplay:10.37,2013-12-30 13:18:00,
2013-12-30 07:23:00,19.7,14.2,30.28,North,355,0.0,0.0,79,0.00,CLR,,0.00,WeatherDisplay:10.37,2013-12-30 13:23:00,
2013-12-30 07:28:00,19.6,14.1,30.28,North,5,0.0,0.0,79,0.00,CLR,,0.00,WeatherDisplay:10.37,2013-12-30 13:28:00,
2013-12-30 07:33:00,19.5,14.0,30.29,NNW,345,1.1,1.1,79,0.00,CLR,,0.00,WeatherDisplay:10.37,2013-12-30 13:33:00,
2013-12-30 07:38:00,19.5,14.0,30.29,North,5,0.0,0.0,79,0.00,CLR,,0.00,WeatherDisplay:10.37,2013-12-30 13:38:00,
2013-12-30 07:43:00,19.5,14.0,30.29,North,5,1.1,1.1,79,0.00,CLR,,0.00,WeatherDisplay:10.37,2013-12-30 13:43:00,
2013-12-30 07:48:00,19.4,13.9,30.29,NNW,345,1.1,0.0,79,0.00,CLR,,0.00,WeatherDisplay:10.37,2013-12-30 13:48:00,
2013-12-30 07:53:00,19.4,13.9,30.29,NNW,327,2.3,2.3,79,0.00,CLR,,0.00,WeatherDisplay:10.37,2013-12-30 13:53:00,
2013-12-30 07:58:00,19.4,14.2,30.30,North,355,1.1,1.1,80,0.00,CLR,,0.00,WeatherDisplay:10.37,2013-12-30 13:58:00,
2013-12-30 08:03:00,19.4,14.2,30.30,North,355,0.0,0.0,80,0.00,CLR,,0.00,WeatherDisplay:10.37,2013-12-30 14:03:00,
2013-12-30 08:08:00,19.4,14.2,30.29,North,355,1.0,0.0,80,0.00,CLR,,0.00,WeatherDisplay:10.37,2013-12-30 14:08:00,
2013-12-30 08:13:00,19.4,14.2,30.30,NNW,344,0.0,0.0,80,0.00,CLR,,0.00,WeatherDisplay:10.37,2013-12-30 14:13:00,
2013-12-30 08:18:00,19.5,14.3,30.30,North,9,2.3,2.3,80,0.00,CLR,,0.00,WeatherDisplay:10.37,2013-12-30 14:18:00,
2013-12-30 08:23:00,19.6,14.1,30.30,North,9,0.0,0.0,79,0.00,CLR,,0.00,WeatherDisplay:10.37,2013-12-30 14:23:00,
2013-12-30 08:28:00,19.9,14.4,30.30,North,11,0.0,0.1,79,0.00,CLR,,0.00,WeatherDisplay:10.37,2013-12-30 14:28:00,
2013-12-30 08:33:00,20.1,14.3,30.29,North,9,0.0,0.0,78,0.00,CLR,,0.00,WeatherDisplay:10.37,2013-12-30 14:33:00,
2013-12-30 08:38:00,20.4,14.6,30.30,North,9,0.0,0.0,78,0.00,CLR,,0.00,WeatherDisplay:10.37,2013-12-30 14:38:00,
2013-12-30 08:43:00,20.7,14.6,30.30,NNW,329,1.1,1.1,77,0.00,CLR,,0.00,WeatherDisplay:10.37,2013-12-30 14:43:00,
2013-12-30 08:48:00,21.0,14.9,30.29,North,9,0.0,0.0,77,0.00,CLR,,0.00,WeatherDisplay:10.37,2013-12-30 14:48:00,
2013-12-30 08:53:00,21.1,14.7,30.29,North,5,1.1,0.0,76,0.00,CLR,,0.00,WeatherDisplay:10.37,2013-12-30 14:53:00,
2013-12-30 08:58:00,21.2,15.1,30.29,North,5,0.0,0.0,77,0.00,CLR,,0.00,WeatherDisplay:10.37,2013-12-30 14:58:00,
2013-12-30 09:03:00,21.3,14.6,30.29,NNE,30,3.5,3.5,75,0.00,CLR,,0.00,WeatherDisplay:10.37,2013-12-30 15:03:00,
2013-12-30 09:08:00,21.2,14.5,30.30,North,11,2.3,0.0,75,0.00,CLR,,0.00,WeatherDisplay:10.37,2013-12-30 15:08:00,
2013-12-30 09:13:00,21.3,14.6,30.30,North,9,1.0,0.0,75,0.00,CLR,,0.00,WeatherDisplay:10.37,2013-12-30 15:13:00,
2013-12-30 09:18:00,21.3,14.3,30.29,North,5,1.1,0.0,74,0.00,CLR,,0.00,WeatherDisplay:10.37,2013-12-30 15:18:00,
2013-12-30 09:23:00,21.4,14.4,30.29,North,9,2.3,2.3,74,0.00,CLR,,0.00,WeatherDisplay:10.37,2013-12-30 15:23:00,
2013-12-30 09:28:00,21.5,14.5,30.29,North,355,1.1,1.1,74,0.00,CLR,,0.00,WeatherDisplay:10.37,2013-12-30 15:28:00,
2013-12-30 09:33:00,21.6,14.9,30.29,North,355,0.0,0.0,75,0.00,CLR,,0.00,WeatherDisplay:10.37,2013-12-30 15:33:00,
2013-12-30 09:38:00,22.0,15.0,30.29,North,355,1.1,0.0,74,0.00,CLR,,0.00,WeatherDisplay:10.37,2013-12-30 15:38:00,
2013-12-30 09:43:00,22.2,15.2,30.29,NNE,13,3.5,3.5,74,0.00,CLR,,0.00,WeatherDisplay:10.37,2013-12-30 15:43:00,
2013-12-30 09:48:00,22.2,14.9,30.29,NNE,18,2.3,0.0,73,0.00,CLR,,0.00,WeatherDisplay:10.37,2013-12-30 15:48:00,
2013-12-30 09:53:00,22.2,14.5,30.29,NNE,28,3.5,3.5,72,0.00,CLR,,0.00,WeatherDisplay:10.37,2013-12-30 15:53:00,
2013-12-30 09:58:00,22.2,14.5,30.29,North,360,2.3,0.0,72,0.00,CLR,,0.00,WeatherDisplay:10.37,2013-12-30 15:58:00,
2013-12-30 10:03:00,22.5,15.1,30.29,NNE,13,3.5,3.5,73,0.00,CLR,,0.00,WeatherDisplay:10.37,2013-12-30 16:03:00,
2013-12-30 10:08:00,22.6,14.6,30.29,NNE,24,0.0,0.0,71,0.00,CLR,,0.00,WeatherDisplay:10.37,2013-12-30 16:08:00,
2013-12-30 10:13:00,22.6,14.3,30.29,North,5,2.3,2.3,70,0.00,CLR,,0.00,WeatherDisplay:10.37,2013-12-30 16:13:00,
2013-12-30 10:18:00,22.5,14.2,30.29,North,5,2.3,2.3,70,0.00,CLR,,0.00,WeatherDisplay:10.37,2013-12-30 16:18:00,
2013-12-30 10:23:00,22.6,14.6,30.29,NNE,15,2.3,0.0,71,0.00,CLR,,0.00,WeatherDisplay:10.37,2013-12-30 16:23:00,
2013-12-30 10:28:00,22.9,14.9,30.29,North,360,3.5,3.5,71,0.00,CLR,,0.00,WeatherDisplay:10.37,2013-12-30 16:28:00,
2013-12-30 10:33:00,23.0,15.0,30.30,North,360,0.0,0.0,71,0.00,CLR,,0.00,WeatherDisplay:10.37,2013-12-30 16:33:00,
2013-12-30 10:38:00,23.3,15.0,30.29,North,360,0.0,0.0,70,0.00,CLR,,0.00,WeatherDisplay:10.37,2013-12-30 16:38:00,
2013-12-30 10:43:00,23.5,15.1,30.29,North,360,2.3,2.3,70,0.00,CLR,,0.00,WeatherDisplay:10.37,2013-12-30 16:43:00,
2013-12-30 10:48:00,23.9,15.2,30.29,North,360,0.0,0.0,69,0.00,CLR,,0.00,WeatherDisplay:10.37,2013-12-30 16:48:00,
2013-12-30 10:53:00,24.2,15.2,30.29,North,5,0.0,0.0,68,0.00,CLR,,0.00,WeatherDisplay:10.37,2013-12-30 16:53:00,
2013-12-30 10:58:00,24.3,15.3,30.29,North,5,1.1,0.0,68,0.00,CLR,,0.00,WeatherDisplay:10.37,2013-12-30 16:58:00,
2013-12-30 11:04:00,24.2,14.8,30.29,North,5,0.0,0.0,67,0.00,CLR,,0.00,WeatherDisplay:10.37,2013-12-30 17:04:00,
2013-12-30 11:09:00,24.3,14.6,30.29,North,5,0.0,0.0,66,0.00,CLR,,0.00,WeatherDisplay:10.37,2013-12-30 17:09:00,
2013-12-30 11:14:00,24.4,14.7,30.29,North,5,0.0,0.0,66,0.00,CLR,,0.00,WeatherDisplay:10.37,2013-12-30 17:14:00,
2013-12-30 11:19:00,24.7,15.3,30.29,North,5,0.0,0.0,67,0.00,CLR,,0.00,WeatherDisplay:10.37,2013-12-30 17:19:00,
2013-12-30 11:24:00,25.0,14.5,30.28,North,5,0.0,0.0,64,0.00,CLR,,0.00,WeatherDisplay:10.37,2013-12-30 17:24:00,
2013-12-30 11:29:00,25.2,14.7,30.28,North,9,0.0,0.0,64,0.00,CLR,,0.00,WeatherDisplay:10.37,2013-12-30 17:29:00,
2013-12-30 11:34:00,25.6,15.8,30.28,North,11,0.0,0.0,66,0.00,CLR,,0.00,WeatherDisplay:10.37,2013-12-30 17:34:00,
2013-12-30 11:39:00,25.9,16.1,30.28,NNW,331,0.0,0.0,66,0.00,CLR,,0.00,WeatherDisplay:10.37,2013-12-30 17:39:00,
2013-12-30 11:44:00,26.3,16.1,30.28,North,5,0.0,0.0,65,0.00,CLR,,0.00,WeatherDisplay:10.37,2013-12-30 17:44:00,
2013-12-30 11:49:00,26.6,16.4,30.27,NE,49,0.0,0.0,65,0.00,CLR,,0.00,WeatherDisplay:10.37,2013-12-30 17:49:00,
2013-12-30 11:54:00,26.7,15.8,30.27,North,5,0.0,0.0,63,0.00,CLR,,0.00,WeatherDisplay:10.37,2013-12-30 17:54:00,
2013-12-30 11:59:00,26.6,14.9,30.26,North,355,1.1,0.0,61,0.00,CLR,,0.00,WeatherDisplay:10.37,2013-12-30 17:59:00,
2013-12-30 12:04:00,26.7,15.4,30.26,North,355,0.0,0.0,62,0.00,CLR,,0.00,WeatherDisplay:10.37,2013-12-30 18:04:00,
2013-12-30 12:09:00,26.6,14.6,30.26,North,355,0.0,0.0,60,0.00,CLR,,0.00,WeatherDisplay:10.37,2013-12-30 18:09:00,
2013-12-30 12:14:00,26.6,14.9,30.26,North,9,0.0,0.0,61,0.00,CLR,,0.00,WeatherDisplay:10.37,2013-12-30 18:14:00,
2013-12-30 12:19:00,26.7,15.0,30.26,North,9,0.0,0.0,61,0.00,CLR,,0.00,WeatherDisplay:10.37,2013-12-30 18:19:00,
2013-12-30 12:24:00,26.8,14.8,30.26,NNW,336,0.0,0.0,60,0.00,CLR,,0.00,WeatherDisplay:10.37,2013-12-30 18:24:00,
2013-12-30 12:29:00,27.0,15.3,30.25,NNW,336,0.0,0.0,61,0.00,CLR,,0.00,WeatherDisplay:10.37,2013-12-30 18:29:00,
2013-12-30 12:34:00,27.4,15.7,30.25,NNW,336,0.0,0.0,61,0.00,CLR,,0.00,WeatherDisplay:10.37,2013-12-30 18:34:00,
2013-12-30 12:39:00,27.6,15.9,30.25,NNW,337,0.0,0.0,61,0.00,CLR,,0.00,WeatherDisplay:10.37,2013-12-30 18:39:00,
2013-12-30 12:44:00,27.7,15.6,30.25,NNW,337,0.0,0.0,60,0.00,CLR,,0.00,WeatherDisplay:10.37,2013-12-30 18:44:00,
2013-12-30 12:49:00,27.8,15.7,30.25,NNW,340,0.0,0.0,60,0.00,CLR,,0.00,WeatherDisplay:10.37,2013-12-30 18:49:00,
2013-12-30 12:54:00,27.9,15.4,30.25,NNW,340,0.0,0.0,59,0.00,CLR,,0.00,WeatherDisplay:10.37,2013-12-30 18:54:00,
2013-12-30 12:59:00,27.9,15.0,30.25,NNW,340,0.0,0.0,58,0.00,CLR,,0.00,WeatherDisplay:10.37,2013-12-30 18:59:00,
2013-12-30 13:04:00,28.1,16.0,30.25,NNW,339,0.0,0.0,60,0.00,CLR,,0.00,WeatherDisplay:10.37,2013-12-30 19:04:00,
2013-12-30 13:09:00,28.2,15.7,30.24,NNW,337,1.1,1.1,59,0.00,CLR,,0.00,WeatherDisplay:10.37,2013-12-30 19:09:00,
2013-12-30 13:14:00,28.5,16.0,30.25,WNW,289,0.0,0.0,59,0.00,CLR,,0.00,WeatherDisplay:10.37,2013-12-30 19:14:00,
2013-12-30 13:19:00,28.6,16.1,30.24,WNW,289,0.0,0.0,59,0.00,CLR,,0.00,WeatherDisplay:10.37,2013-12-30 19:19:00,
2013-12-30 13:24:00,28.8,16.6,30.23,East,85,0.0,0.0,60,0.00,CLR,,0.00,WeatherDisplay:10.37,2013-12-30 19:24:00,
2013-12-30 13:29:00,29.1,16.9,30.24,East,84,0.0,0.0,60,0.00,CLR,,0.00,WeatherDisplay:10.37,2013-12-30 19:29:00,
2013-12-30 13:34:00,29.3,15.9,30.24,East,84,0.0,0.0,57,0.00,CLR,,0.00,WeatherDisplay:10.37,2013-12-30 19:34:00,
2013-12-30 13:39:00,29.3,16.3,30.24,East,84,0.0,0.0,58,0.00,CLR,,0.00,WeatherDisplay:10.37,2013-12-30 19:39:00,
2013-12-30 13:44:00,29.4,16.0,30.24,East,84,0.0,0.0,57,0.00,CLR,,0.00,WeatherDisplay:10.37,2013-12-30 19:44:00,
2013-12-30 13:49:00,29.5,15.7,30.24,North,355,0.0,0.0,56,0.00,CLR,,0.00,WeatherDisplay:10.37,2013-12-30 19:49:00,
2013-12-30 13:54:00,29.6,15.8,30.24,NW,318,0.0,0.0,56,0.00,CLR,,0.00,WeatherDisplay:10.37,2013-12-30 19:54:00,
2013-12-30 13:59:00,29.6,15.8,30.24,NW,318,0.0,0.0,56,0.00,CLR,,0.00,WeatherDisplay:10.37,2013-12-30 19:59:00,
2013-12-30 14:04:00,29.9,17.3,30.24,NW,318,0.0,0.0,59,0.00,CLR,,0.00,WeatherDisplay:10.37,2013-12-30 20:04:00,
2013-12-30 14:09:00,30.1,17.5,30.24,West,273,1.0,1.0,59,0.00,CLR,,0.00,WeatherDisplay:10.37,2013-12-30 20:09:00,
2013-12-30 14:14:00,30.5,17.1,30.23,NW,315,3.5,0.0,57,0.00,CLR,,0.00,WeatherDisplay:10.37,2013-12-30 20:14:00,
2013-12-30 14:20:00,30.6,17.6,30.24,WNW,291,2.0,2.0,58,0.00,CLR,,0.00,WeatherDisplay:10.37,2013-12-30 20:20:00,
2013-12-30 14:25:00,30.9,17.8,30.23,WSW,257,3.5,3.5,58,0.00,CLR,,0.00,WeatherDisplay:10.37,2013-12-30 20:25:00,
2013-12-30 14:31:00,30.9,17.4,30.23,WNW,290,1.0,1.0,57,0.00,CLR,,0.00,WeatherDisplay:10.37,2013-12-30 20:31:00,
2013-12-30 14:36:00,30.8,17.7,30.23,WNW,290,0.0,0.0,58,0.00,CLR,,0.00,WeatherDisplay:10.37,2013-12-30 20:36:00,
2013-12-30 14:41:00,30.8,17.3,30.23,WNW,292,0.0,0.0,57,0.00,CLR,,0.00,WeatherDisplay:10.37,2013-12-30 20:41:00,
2013-12-30 14:46:00,30.7,17.3,30.23,WNW,292,0.0,0.0,57,0.00,CLR,,0.00,WeatherDisplay:10.37,2013-12-30 20:46:00,
2013-12-30 14:51:00,30.6,17.2,30.22,WNW,292,0.0,0.0,57,0.00,CLR,,0.00,WeatherDisplay:10.37,2013-12-30 20:51:00,
2013-12-30 14:56:00,30.4,16.6,30.22,WNW,292,0.0,0.0,56,0.00,CLR,,0.00,WeatherDisplay:10.37,2013-12-30 20:56:00,
2013-12-30 15:01:00,30.1,16.3,30.22,WNW,292,0.0,0.0,56,0.00,CLR,,0.00,WeatherDisplay:10.37,2013-12-30 21:01:00,
2013-12-30 15:06:00,30.0,16.6,30.23,WNW,292,0.0,0.0,57,0.00,CLR,,0.00,WeatherDisplay:10.37,2013-12-30 21:06:00,
2013-12-30 15:11:00,30.0,17.0,30.23,WNW,292,0.0,0.0,58,0.00,CLR,,0.00,WeatherDisplay:10.37,2013-12-30 21:11:00,
2013-12-30 15:16:00,29.9,16.5,30.23,WNW,292,0.0,0.1,57,0.00,CLR,,0.00,WeatherDisplay:10.37,2013-12-30 21:16:00,
2013-12-30 15:21:00,30.1,17.9,30.23,WSW,248,3.5,3.5,60,0.00,CLR,,0.00,WeatherDisplay:10.37,2013-12-30 21:21:00,
2013-12-30 15:27:00,30.2,17.6,30.24,WSW,248,0.0,0.0,59,0.00,CLR,,0.00,WeatherDisplay:10.37,2013-12-30 21:27:00,
2013-12-30 15:32:00,30.2,16.8,30.24,NW,325,0.0,0.0,57,0.00,CLR,,0.00,WeatherDisplay:10.37,2013-12-30 21:32:00,
2013-12-30 15:37:00,30.1,16.3,30.24,NW,325,0.0,0.0,56,0.00,CLR,,0.00,WeatherDisplay:10.37,2013-12-30 21:37:00,
2013-12-30 15:42:00,30.2,16.4,30.24,NNW,329,2.3,0.0,56,0.00,CLR,,0.00,WeatherDisplay:10.37,2013-12-30 21:42:00,
2013-12-30 15:47:00,30.1,16.7,30.24,NW,311,0.0,0.0,57,0.00,CLR,,0.00,WeatherDisplay:10.37,2013-12-30 21:47:00,
2013-12-30 15:52:00,30.0,16.6,30.24,NW,311,0.0,0.0,57,0.00,CLR,,0.00,WeatherDisplay:10.37,2013-12-30 21:52:00,
2013-12-30 15:57:00,29.9,16.5,30.24,NW,311,0.0,0.0,57,0.00,CLR,,0.00,WeatherDisplay:10.37,2013-12-30 21:57:00,
2013-12-30 16:02:00,29.7,16.3,30.24,NW,311,0.0,0.0,57,0.00,CLR,,0.00,WeatherDisplay:10.37,2013-12-30 22:02:00,
2013-12-30 16:07:00,29.7,16.7,30.24,NW,311,0.0,0.0,58,0.00,CLR,,0.00,WeatherDisplay:10.37,2013-12-30 22:07:00,
2013-12-30 16:12:00,29.6,16.6,30.24,NW,311,0.0,0.0,58,0.00,CLR,,0.00,WeatherDisplay:10.37,2013-12-30 22:12:00,
2013-12-30 16:17:00,29.6,16.6,30.24,NW,311,0.0,0.0,58,0.00,CLR,,0.00,WeatherDisplay:10.37,2013-12-30 22:17:00,
2013-12-30 16:22:00,29.4,16.8,30.25,NW,311,0.0,0.0,59,0.00,CLR,,0.00,WeatherDisplay:10.37,2013-12-30 22:22:00,
2013-12-30 16:27:00,29.3,15.9,30.24,NW,311,0.0,0.0,57,0.00,CLR,,0.00,WeatherDisplay:10.37,2013-12-30 22:27:00,
2013-12-30 16:32:00,29.2,16.2,30.24,NW,311,0.0,0.0,58,0.00,CLR,,0.00,WeatherDisplay:10.37,2013-12-30 22:32:00,
2013-12-30 16:37:00,29.1,16.5,30.24,NW,311,0.0,0.0,59,0.00,CLR,,0.00,WeatherDisplay:10.37,2013-12-30 22:37:00,
2013-12-30 16:42:00,28.9,16.0,30.24,NW,311,0.0,0.0,58,0.00,CLR,,0.00,WeatherDisplay:10.37,2013-12-30 22:42:00,
2013-12-30 16:47:00,28.8,16.6,30.25,NW,311,0.0,0.0,60,0.00,CLR,,0.00,WeatherDisplay:10.37,2013-12-30 22:47:00,
2013-12-30 16:52:00,28.7,16.9,30.24,NW,311,0.0,0.0,61,0.00,CLR,,0.00,WeatherDisplay:10.37,2013-12-30 22:52:00,
2013-12-30 16:57:00,28.5,16.4,30.25,NW,311,0.0,0.0,60,0.00,CLR,,0.00,WeatherDisplay:10.37,2013-12-30 22:57:00,
2013-12-30 17:02:00,28.4,16.7,30.25,NW,311,0.0,0.0,61,0.00,CLR,,0.00,WeatherDisplay:10.37,2013-12-30 23:02:00,
2013-12-30 17:07:00,28.2,16.8,30.25,NW,311,0.0,0.0,62,0.00,CLR,,0.00,WeatherDisplay:10.37,2013-12-30 23:07:00,
2013-12-30 17:12:00,28.0,16.6,30.24,NW,311,0.0,0.0,62,0.00,CLR,,0.00,WeatherDisplay:10.37,2013-12-30 23:12:00,
2013-12-30 17:17:00,27.9,15.8,30.24,NW,311,0.0,0.0,60,0.00,CLR,,0.00,WeatherDisplay:10.37,2013-12-30 23:17:00,
2013-12-30 17:22:00,27.8,16.5,30.24,NW,311,0.0,0.0,62,0.00,CLR,,0.00,WeatherDisplay:10.37,2013-12-30 23:22:00,
2013-12-30 17:27:00,27.7,17.1,30.24,NW,311,0.0,0.0,64,0.00,CLR,,0.00,WeatherDisplay:10.37,2013-12-30 23:27:00,
2013-12-30 17:32:00,27.7,17.5,30.23,NW,311,0.0,0.0,65,0.00,CLR,,0.00,WeatherDisplay:10.37,2013-12-30 23:32:00,
2013-12-30 17:37:00,27.6,17.7,30.24,NW,311,0.0,0.0,66,0.00,CLR,,0.00,WeatherDisplay:10.37,2013-12-30 23:37:00,
2013-12-30 17:42:00,27.5,18.0,30.24,NW,311,0.0,0.0,67,0.00,CLR,,0.00,WeatherDisplay:10.37,2013-12-30 23:42:00,
2013-12-30 17:47:00,27.5,17.6,30.24,NW,311,0.0,0.0,66,0.00,CLR,,0.00,WeatherDisplay:10.37,2013-12-30 23:47:00,
2013-12-30 17:52:00,27.4,18.2,30.24,NW,311,0.0,0.0,68,0.00,CLR,,0.00,WeatherDisplay:10.37,2013-12-30 23:52:00,
2013-12-30 17:57:00,27.3,17.8,30.24,NW,311,0.0,0.0,67,0.00,CLR,,0.00,WeatherDisplay:10.37,2013-12-30 23:57:00,
2013-12-30 18:02:00,27.2,17.7,30.24,NW,311,0.0,0.0,67,0.00,CLR,,0.00,WeatherDisplay:10.37,2013-12-31 00:02:00,
2013-12-30 18:07:00,27.0,17.8,30.25,NW,311,0.0,0.0,68,0.00,CLR,,0.00,WeatherDisplay:10.37,2013-12-31 00:07:00,
2013-12-30 18:12:00,26.7,17.9,30.25,NW,311,0.0,0.0,69,0.00,CLR,,0.00,WeatherDisplay:10.37,2013-12-31 00:12:00,
2013-12-30 18:17:00,26.4,17.3,30.25,NW,311,0.0,0.0,68,0.00,CLR,,0.00,WeatherDisplay:10.37,2013-12-31 00:17:00,
2013-12-30 18:22:00,26.2,17.1,30.25,NW,311,0.0,0.0,68,0.00,CLR,,0.00,WeatherDisplay:10.37,2013-12-31 00:22:00,
2013-12-30 18:27:00,26.0,17.2,30.25,NW,311,0.0,0.0,69,0.00,CLR,,0.00,WeatherDisplay:10.37,2013-12-31 00:27:00,
2013-12-30 18:32:00,25.8,17.7,30.26,NW,311,0.0,0.0,71,0.00,CLR,,0.00,WeatherDisplay:10.37,2013-12-31 00:32:00,
2013-12-30 18:37:00,25.6,17.5,30.26,NW,311,0.0,0.0,71,0.00,CLR,,0.00,WeatherDisplay:10.37,2013-12-31 00:37:00,
2013-12-30 18:42:00,25.3,17.5,30.26,NW,311,0.0,0.0,72,0.00,CLR,,0.00,WeatherDisplay:10.37,2013-12-31 00:42:00,
2013-12-30 18:47:00,25.2,17.8,30.26,NW,311,0.0,0.0,73,0.00,CLR,,0.00,WeatherDisplay:10.37,2013-12-31 00:47:00,
2013-12-30 18:52:00,25.1,17.7,30.26,NW,311,0.0,0.0,73,0.00,CLR,,0.00,WeatherDisplay:10.37,2013-12-31 00:52:00,
2013-12-30 18:57:00,25.0,17.6,30.26,NW,311,0.0,0.0,73,0.00,CLR,,0.00,WeatherDisplay:10.37,2013-12-31 00:57:00,
2013-12-30 19:02:00,24.9,17.8,30.26,NW,311,0.0,0.0,74,0.00,CLR,,0.00,WeatherDisplay:10.37,2013-12-31 01:02:00,
2013-12-30 19:07:00,24.9,18.1,30.26,NW,311,0.0,0.0,75,0.00,CLR,,0.00,WeatherDisplay:10.37,2013-12-31 01:07:00,
2013-12-30 19:12:00,24.8,18.0,30.26,NW,311,0.0,0.0,75,0.00,CLR,,0.00,WeatherDisplay:10.37,2013-12-31 01:12:00,
2013-12-30 19:17:00,24.7,18.2,30.27,NW,311,0.0,0.0,76,0.00,CLR,,0.00,WeatherDisplay:10.37,2013-12-31 01:17:00,
2013-12-30 19:22:00,24.5,17.7,30.27,NW,304,0.0,0.0,75,0.00,CLR,,0.00,WeatherDisplay:10.37,2013-12-31 01:22:00,
2013-12-30 19:27:00,24.5,17.7,30.26,WNW,297,0.0,0.0,75,0.00,CLR,,0.00,WeatherDisplay:10.37,2013-12-31 01:27:00,
2013-12-30 19:32:00,24.5,17.4,30.26,WNW,294,0.0,0.0,74,0.00,CLR,,0.00,WeatherDisplay:10.37,2013-12-31 01:32:00,
2013-12-30 19:37:00,24.5,17.4,30.26,WNW,294,0.0,0.0,74,0.00,CLR,,0.00,WeatherDisplay:10.37,2013-12-31 01:37:00,
2013-12-30 19:42:00,24.4,17.6,30.27,WNW,294,0.0,0.0,75,0.00,CLR,,0.00,WeatherDisplay:10.37,2013-12-31 01:42:00,
2013-12-30 19:47:00,24.3,17.2,30.27,WNW,294,0.0,0.0,74,0.00,CLR,,0.00,WeatherDisplay:10.37,2013-12-31 01:47:00,
2013-12-30 19:52:00,24.2,17.4,30.26,WNW,294,0.0,0.0,75,0.00,CLR,,0.00,WeatherDisplay:10.37,2013-12-31 01:52:00,
2013-12-30 19:57:00,24.1,17.3,30.26,WNW,294,0.0,0.0,75,0.00,CLR,,0.00,WeatherDisplay:10.37,2013-12-31 01:57:00,
2013-12-30 20:02:00,24.0,16.9,30.27,WNW,294,0.0,0.0,74,0.00,CLR,,0.00,WeatherDisplay:10.37,2013-12-31 02:02:00,
2013-12-30 20:07:00,24.0,17.2,30.27,WNW,294,0.0,0.0,75,0.00,CLR,,0.00,WeatherDisplay:10.37,2013-12-31 02:07:00,
2013-12-30 20:12:00,23.8,17.6,30.27,WNW,294,0.0,0.0,77,0.00,CLR,,0.00,WeatherDisplay:10.37,2013-12-31 02:12:00,
2013-12-30 20:17:00,23.6,17.4,30.27,WNW,294,0.0,0.0,77,0.00,CLR,,0.00,WeatherDisplay:10.37,2013-12-31 02:17:00,
2013-12-30 20:22:00,23.5,17.0,30.27,WNW,294,0.0,0.0,76,0.00,CLR,,0.00,WeatherDisplay:10.37,2013-12-31 02:22:00,
2013-12-30 20:27:00,23.4,16.9,30.27,WNW,294,0.0,0.0,76,0.00,CLR,,0.00,WeatherDisplay:10.37,2013-12-31 02:27:00,
2013-12-30 20:32:00,23.3,17.2,30.28,WNW,294,0.0,0.0,77,0.00,CLR,,0.00,WeatherDisplay:10.37,2013-12-31 02:32:00,
2013-12-30 20:37:00,23.2,16.8,30.28,WNW,294,0.0,0.0,76,0.00,CLR,,0.00,WeatherDisplay:10.37,2013-12-31 02:37:00,
2013-12-30 20:42:00,23.2,16.8,30.28,West,273,1.1,0.0,76,0.00,CLR,,0.00,WeatherDisplay:10.37,2013-12-31 02:42:00,
2013-12-30 20:47:00,23.3,16.9,30.28,West,272,0.0,0.0,76,0.00,CLR,,0.00,WeatherDisplay:10.37,2013-12-31 02:47:00,
2013-12-30 20:52:00,23.3,16.9,30.28,West,272,0.0,0.0,76,0.00,CLR,,0.00,WeatherDisplay:10.37,2013-12-31 02:52:00,
2013-12-30 20:57:00,23.3,17.2,30.28,West,266,0.0,0.0,77,0.00,CLR,,0.00,WeatherDisplay:10.37,2013-12-31 02:57:00,
2013-12-30 21:03:00,23.2,17.1,30.28,WSW,253,0.0,0.0,77,0.00,CLR,,0.00,WeatherDisplay:10.37,2013-12-31 03:03:00,
2013-12-30 21:08:00,23.3,17.2,30.28,WSW,242,1.1,0.0,77,0.00,CLR,,0.00,WeatherDisplay:10.37,2013-12-31 03:08:00,
2013-12-30 21:13:00,23.3,17.2,30.28,SW,229,1.1,1.1,77,0.00,CLR,,0.00,WeatherDisplay:10.37,2013-12-31 03:13:00,
2013-12-30 21:18:00,23.4,17.6,30.27,SSW,205,2.3,2.3,78,0.00,CLR,,0.00,WeatherDisplay:10.37,2013-12-31 03:18:00,
2013-12-30 21:23:00,23.3,17.5,30.27,SSW,205,0.0,0.0,78,0.00,CLR,,0.00,WeatherDisplay:10.37,2013-12-31 03:23:00,
2013-12-30 21:28:00,23.2,17.7,30.27,SSW,201,0.0,0.0,79,0.00,CLR,,0.00,WeatherDisplay:10.37,2013-12-31 03:28:00,
2013-12-30 21:33:00,23.2,17.7,30.28,SSW,201,0.0,0.0,79,0.00,CLR,,0.00,WeatherDisplay:10.37,2013-12-31 03:33:00,
2013-12-30 21:38:00,23.1,17.6,30.28,SSW,201,0.0,0.0,79,0.00,CLR,,0.00,WeatherDisplay:10.37,2013-12-31 03:38:00,
2013-12-30 21:43:00,23.1,17.6,30.28,SSW,201,1.1,0.0,79,0.00,CLR,,0.00,WeatherDisplay:10.37,2013-12-31 03:43:00,
2013-12-30 21:48:00,23.0,17.5,30.28,SSW,201,0.0,0.0,79,0.00,CLR,,0.00,WeatherDisplay:10.37,2013-12-31 03:48:00,
2013-12-30 21:53:00,22.9,17.4,30.28,SSW,201,0.0,0.0,79,0.00,CLR,,0.00,WeatherDisplay:10.37,2013-12-31 03:53:00,
2013-12-30 21:58:00,22.9,17.4,30.29,SSW,207,2.3,2.3,79,0.00,CLR,,0.00,WeatherDisplay:10.37,2013-12-31 03:58:00,
2013-12-30 22:03:00,23.0,17.5,30.29,SSW,213,2.3,2.3,79,0.00,CLR,,0.00,WeatherDisplay:10.37,2013-12-31 04:03:00,
2013-12-30 22:08:00,23.0,17.5,30.29,SSW,213,1.1,0.0,79,0.00,CLR,,0.00,WeatherDisplay:10.37,2013-12-31 04:08:00,
2013-12-30 22:13:00,23.0,17.5,30.29,SW,230,2.3,2.3,79,0.00,CLR,,0.00,WeatherDisplay:10.37,2013-12-31 04:13:00,
2013-12-30 22:18:00,23.0,17.5,30.30,SW,219,3.5,3.5,79,0.00,CLR,,0.00,WeatherDisplay:10.37,2013-12-31 04:18:00,
2013-12-30 22:23:00,23.1,17.6,30.29,SSW,200,3.5,3.5,79,0.00,CLR,,0.00,WeatherDisplay:10.37,2013-12-31 04:23:00,
2013-12-30 22:28:00,23.1,17.6,30.29,SSW,200,0.0,0.0,79,0.00,CLR,,0.00,WeatherDisplay:10.37,2013-12-31 04:28:00,
2013-12-30 22:33:00,23.1,17.6,30.29,SW,219,2.3,2.3,79,0.00,CLR,,0.00,WeatherDisplay:10.37,2013-12-31 04:33:00,
2013-12-30 22:38:00,23.1,17.8,30.29,South,188,0.0,0.0,80,0.00,CLR,,0.00,WeatherDisplay:10.37,2013-12-31 04:38:00,
2013-12-30 22:43:00,23.0,17.7,30.29,SW,218,3.5,3.5,80,0.00,CLR,,0.00,WeatherDisplay:10.37,2013-12-31 04:43:00,
2013-12-30 22:44:00,23.0,17.7,30.29,WSW,239,3.5,3.5,80,0.00,CLR,,0.00,WeatherDisplay:10.37,2013-12-31 04:44:00,
2013-12-30 22:49:00,23.1,17.8,30.29,SW,221,0.0,0.0,80,0.00,CLR,,0.00,WeatherDisplay:10.37,2013-12-31 04:49:00,
2013-12-30 22:54:00,23.1,17.8,30.29,SW,225,1.1,1.1,80,0.00,CLR,,0.00,WeatherDisplay:10.37,2013-12-31 04:54:00,
2013-12-30 22:59:00,23.0,17.7,30.29,SW,225,1.1,1.1,80,0.00,CLR,,0.00,WeatherDisplay:10.37,2013-12-31 04:59:00,
2013-12-30 23:01:00,23.1,17.8,30.29,SW,223,3.5,0.0,80,0.00,CLR,,0.00,WeatherDisplay:10.37,2013-12-31 05:01:00,
2013-12-30 23:02:00,23.0,17.7,30.29,SW,223,2.3,0.0,80,0.00,CLR,,0.00,WeatherDisplay:10.37,2013-12-31 05:02:00,
2013-12-30 23:07:00,23.0,18.0,30.29,SSW,213,3.5,3.5,81,0.00,CLR,,0.00,WeatherDisplay:10.37,2013-12-31 05:07:00,
2013-12-30 23:12:00,23.0,18.0,30.29,SSW,211,2.3,2.3,81,0.00,CLR,,0.00,WeatherDisplay:10.37,2013-12-31 05:12:00,
2013-12-30 23:17:00,23.1,18.1,30.28,SSW,202,1.1,1.1,81,0.00,CLR,,0.00,WeatherDisplay:10.37,2013-12-31 05:17:00,
2013-12-30 23:22:00,23.0,18.0,30.28,SSW,204,2.3,0.0,81,0.00,CLR,,0.00,WeatherDisplay:10.37,2013-12-31 05:22:00,
2013-12-30 23:27:00,23.0,18.0,30.29,SSW,209,0.0,0.1,81,0.00,CLR,,0.00,WeatherDisplay:10.37,2013-12-31 05:27:00,
2013-12-30 23:32:00,22.9,17.9,30.29,SSW,213,0.0,0.0,81,0.00,CLR,,0.00,WeatherDisplay:10.37,2013-12-31 05:32:00,
2013-12-30 23:37:00,22.8,17.8,30.29,SW,220,3.5,3.5,81,0.00,CLR,,0.00,WeatherDisplay:10.37,2013-12-31 05:37:00,
2013-12-30 23:42:00,22.7,17.7,30.28,SW,220,2.3,2.3,81,0.00,CLR,,0.00,WeatherDisplay:10.37,2013-12-31 05:42:00,
2013-12-30 23:47:00,22.7,17.7,30.28,SW,215,2.3,2.3,81,0.00,CLR,,0.00,WeatherDisplay:10.37,2013-12-31 05:47:00,
2013-12-30 23:52:00,22.8,17.8,30.29,SSW,213,1.1,1.1,81,0.00,CLR,,0.00,WeatherDisplay:10.37,2013-12-31 05:52:00,
2013-12-30 23:57:00,22.8,17.8,30.29,SW,232,2.3,2.3,81,0.00,CLR,,0.00,WeatherDisplay:10.37,2013-12-31 05:57:00,